Time;durP1;ratioP1;P1;durP2;ratioP2;P2;SDS_P1;SDS_P2;PMS_P1;PMS_P2;Temp;Humidity;BMP_temperature;BMP_pressure;BME280_temperature;BME280_humidity;BME280_pressure;Samples;Min_cycle;Max_cycle;Signal;HPM_P1;HPM_P2
2021/10/16 00:01:42;;;;;;;16.27;14.03;;;;;;;7.62;91.24;95927.50;5056215;28;20208;-77
2021/10/16 00:04:08;;;;;;;20.40;15.37;;;;;;;7.63;91.32;95929.13;5055776;28;20181;-78
2021/10/16 00:06:33;;;;;;;18.50;14.83;;;;;;;7.64;91.49;95925.59;5056382;28;20189;-78
2021/10/16 00:08:58;;;;;;;22.60;17.00;;;;;;;7.65;91.67;95927.25;5055824;28;20193;-78
2021/10/16 00:11:24;;;;;;;23.67;17.63;;;;;;;7.66;91.65;95932.28;5075640;28;20726;-78
2021/10/16 00:13:49;;;;;;;21.50;15.77;;;;;;;7.70;91.32;95930.31;5056736;28;20627;-78
2021/10/16 00:16:16;;;;;;;21.70;15.83;;;;;;;7.73;91.72;95929.25;5059765;28;20185;-79
2021/10/16 00:18:41;;;;;;;23.03;16.60;;;;;;;7.74;91.92;95936.03;5056765;28;20280;-79
2021/10/16 00:21:07;;;;;;;19.03;15.97;;;;;;;7.75;91.93;95928.16;5056377;28;20663;-77
2021/10/16 00:23:32;;;;;;;21.10;16.40;;;;;;;7.78;92.04;95932.28;5056513;28;20174;-79
2021/10/16 00:25:57;;;;;;;23.37;16.37;;;;;;;7.79;91.88;95931.34;5056943;28;20173;-79
2021/10/16 00:28:22;;;;;;;20.83;16.47;;;;;;;7.81;91.78;95932.03;5056598;28;20197;-78
2021/10/16 00:30:48;;;;;;;23.30;18.10;;;;;;;7.82;92.13;95933.69;5056997;28;20189;-79
2021/10/16 00:33:14;;;;;;;20.80;15.20;;;;;;;7.83;91.97;95930.97;5073367;28;20188;-78
2021/10/16 00:35:40;;;;;;;23.03;16.77;;;;;;;7.84;92.04;95931.78;5053762;28;20227;-79
2021/10/16 00:38:05;;;;;;;22.50;17.07;;;;;;;7.83;92.53;95928.38;5019789;28;20198;-79
2021/10/16 00:40:31;;;;;;;21.60;15.83;;;;;;;7.83;92.49;95925.81;5054279;28;20553;-78
2021/10/16 00:42:56;;;;;;;19.93;14.03;;;;;;;7.85;92.42;95928.25;5036013;28;20228;-79
2021/10/16 00:45:24;;;;;;;17.37;14.90;;;;;;;7.84;92.58;95926.63;5036370;28;20205;-79
2021/10/16 00:47:49;;;;;;;17.83;14.37;;;;;;;7.81;92.70;95932.03;5040359;28;20208;-79
2021/10/16 00:50:17;;;;;;;19.30;15.10;;;;;;;7.81;92.94;95919.13;5041469;28;20215;-79
2021/10/16 00:52:42;;;;;;;21.20;16.50;;;;;;;7.77;93.16;95915.13;5064237;28;20178;-79
2021/10/16 00:55:13;;;;;;;24.40;17.53;;;;;;;7.75;92.87;95917.00;5064036;28;20212;-79
2021/10/16 00:57:39;;;;;;;23.37;17.27;;;;;;;7.73;93.07;95916.31;5048024;28;20206;-79
2021/10/16 01:00:07;;;;;;;25.47;17.90;;;;;;;7.72;93.03;95907.75;5031909;28;20189;-78
2021/10/16 01:02:32;;;;;;;23.60;18.20;;;;;;;7.72;92.89;95909.50;5048671;28;20209;-79
2021/10/16 01:04:58;;;;;;;24.43;17.33;;;;;;;7.70;93.10;95903.63;5040918;28;20629;-78
2021/10/16 01:07:24;;;;;;;25.07;17.53;;;;;;;7.70;93.21;95903.63;5057945;28;20190;-78
2021/10/16 01:09:49;;;;;;;23.13;17.23;;;;;;;7.71;93.50;95900.09;5039568;28;20196;-78
2021/10/16 01:12:16;;;;;;;25.27;17.53;;;;;;;7.70;93.47;95901.88;5023853;28;20245;-78
2021/10/16 01:14:58;;;;;;;24.90;17.40;;;;;;;7.71;93.36;95900.09;5040088;28;20230;-78
2021/10/16 01:17:24;;;;;;;28.93;19.90;;;;;;;7.71;93.47;95900.09;5045024;28;20189;-78
2021/10/16 01:20:03;;;;;;;26.43;18.80;;;;;;;7.72;93.44;95904.34;5031151;28;20200;-79
2021/10/16 01:22:31;;;;;;;25.13;17.57;;;;;;;7.70;93.49;95898.47;5048345;28;20297;-77
2021/10/16 01:24:56;;;;;;;24.83;18.90;;;;;;;7.68;93.64;95901.16;5031549;28;20217;-78
2021/10/16 01:27:21;;;;;;;22.93;18.00;;;;;;;7.71;93.60;95900.09;5041622;28;20178;-78
2021/10/16 01:29:49;;;;;;;27.80;19.70;;;;;;;7.72;93.59;95891.41;5039959;28;20206;-78
2021/10/16 01:32:14;;;;;;;25.37;19.50;;;;;;;7.72;93.65;95897.41;5040747;28;20715;-78
2021/10/16 01:34:39;;;;;;;28.67;19.47;;;;;;;7.71;93.80;95889.78;5021184;28;20273;-78
2021/10/16 01:37:05;;;;;;;28.07;19.00;;;;;;;7.71;93.79;95887.19;5051914;28;20181;-77
2021/10/16 01:39:31;;;;;;;23.60;17.87;;;;;;;7.70;93.86;95870.84;5035032;28;20307;-77
2021/10/16 01:41:56;;;;;;;23.70;18.67;;;;;;;7.69;93.78;95887.31;5034789;28;20290;-77
2021/10/16 01:44:22;;;;;;;24.07;17.27;;;;;;;7.69;93.87;95883.91;5034250;28;20182;-77
2021/10/16 01:46:47;;;;;;;23.60;16.23;;;;;;;7.67;94.02;95881.41;5035410;28;20224;-78
2021/10/16 01:49:15;;;;;;;20.87;15.93;;;;;;;7.66;93.81;95872.84;5036090;28;21029;-77
2021/10/16 01:51:41;;;;;;;23.13;17.40;;;;;;;7.67;93.76;95878.84;5037956;28;20166;-78
2021/10/16 01:54:06;;;;;;;25.23;18.70;;;;;;;7.63;94.34;95873.09;5020040;28;20180;-80
2021/10/16 01:56:32;;;;;;;29.43;19.20;;;;;;;7.66;94.27;95866.84;5052829;28;20181;-77
2021/10/16 01:59:12;;;;;;;33.73;22.70;;;;;;;7.64;94.81;95877.31;5035517;28;20196;-78
2021/10/16 02:01:38;;;;;;;29.37;22.17;;;;;;;7.63;94.96;95867.94;5051418;28;20196;-77
2021/10/16 02:04:03;;;;;;;31.53;22.60;;;;;;;7.63;94.52;95874.88;5034114;28;20182;-77
2021/10/16 02:06:28;;;;;;;32.90;24.33;;;;;;;7.60;95.00;95869.94;5035918;28;20170;-77
2021/10/16 02:08:54;;;;;;;31.63;23.83;;;;;;;7.59;94.90;95866.50;5052234;28;20233;-79
2021/10/16 02:11:19;;;;;;;30.77;21.57;;;;;;;7.58;94.77;95875.22;5053399;28;20180;-77
2021/10/16 02:13:44;;;;;;;28.87;22.37;;;;;;;7.56;94.67;95873.69;5035285;28;20213;-79
2021/10/16 02:16:09;;;;;;;29.07;21.47;;;;;;;7.58;94.68;95876.97;5053166;28;20205;-78
2021/10/16 02:18:35;;;;;;;26.03;20.03;;;;;;;7.56;94.44;95871.94;5051985;28;20261;-78
2021/10/16 02:21:00;;;;;;;31.83;22.37;;;;;;;7.55;94.66;95879.81;5035299;28;20181;-78
2021/10/16 02:23:26;;;;;;;27.33;19.53;;;;;;;7.55;94.84;95880.63;5051713;28;20178;-78
2021/10/16 02:25:51;;;;;;;25.73;18.07;;;;;;;7.54;94.86;95884.16;5052565;28;20184;-77
2021/10/16 02:28:17;;;;;;;25.90;18.03;;;;;;;7.52;94.81;95880.06;5052654;28;20189;-77
2021/10/16 02:30:42;;;;;;;24.17;16.27;;;;;;;7.51;94.88;95875.81;5034934;28;20185;-76
2021/10/16 02:33:07;;;;;;;23.80;16.57;;;;;;;7.51;94.68;95870.63;5050213;28;20209;-78
2021/10/16 02:35:33;;;;;;;29.07;19.70;;;;;;;7.49;95.21;95875.94;5033152;28;20170;-78
2021/10/16 02:37:58;;;;;;;30.93;19.47;;;;;;;7.49;94.90;95870.78;5051555;28;20194;-77
2021/10/16 02:40:23;;;;;;;30.67;21.43;;;;;;;7.47;95.32;95875.25;5051622;28;20251;-77
2021/10/16 02:42:48;;;;;;;27.80;20.50;;;;;;;7.49;95.25;95875.13;5033802;28;20624;-78
2021/10/16 02:45:14;;;;;;;32.40;21.93;;;;;;;7.46;95.21;95878.78;5017319;28;20639;-78
2021/10/16 02:47:39;;;;;;;30.60;20.73;;;;;;;7.47;95.24;95880.41;5034681;28;20253;-77
2021/10/16 02:50:05;;;;;;;24.83;19.03;;;;;;;7.45;95.16;95877.13;5034460;28;20188;-77
2021/10/16 02:52:30;;;;;;;29.53;20.93;;;;;;;7.45;94.85;95879.72;5018604;28;20166;-78
2021/10/16 02:54:55;;;;;;;34.27;23.53;;;;;;;7.45;95.76;95884.06;5051938;28;20174;-77
2021/10/16 02:57:21;;;;;;;30.17;21.77;;;;;;;7.46;95.64;95885.69;5052840;28;20180;-78
2021/10/16 02:59:46;;;;;;;33.00;22.67;;;;;;;7.45;95.49;95889.22;5034767;28;20209;-77
2021/10/16 03:02:11;;;;;;;27.63;21.33;;;;;;;7.44;95.40;95888.41;5052318;28;20206;-78
2021/10/16 03:04:36;;;;;;;28.43;20.40;;;;;;;7.44;95.35;95890.19;5034343;28;20209;-78
2021/10/16 03:07:02;;;;;;;32.27;21.80;;;;;;;7.45;95.26;95884.88;5052932;28;20178;-77
2021/10/16 03:09:27;;;;;;;32.03;21.43;;;;;;;7.45;95.33;95884.88;5033970;28;20209;-77
2021/10/16 03:11:53;;;;;;;35.20;21.20;;;;;;;7.45;95.56;95890.06;5052149;28;20178;-78
2021/10/16 03:14:18;;;;;;;28.37;19.53;;;;;;;7.46;95.41;95890.88;5020945;28;20193;-79
2021/10/16 03:16:43;;;;;;;30.00;20.93;;;;;;;7.43;95.56;95888.53;5022133;28;20186;-78
2021/10/16 03:19:09;;;;;;;30.40;23.00;;;;;;;7.40;95.89;95892.16;5056402;28;20819;-79
2021/10/16 03:21:34;;;;;;;32.03;21.07;;;;;;;7.45;95.50;95882.31;5055358;28;20213;-79
2021/10/16 03:24:01;;;;;;;30.77;21.63;;;;;;;7.44;95.58;95883.25;5038056;28;20200;-78
2021/10/16 03:26:26;;;;;;;28.27;20.80;;;;;;;7.42;95.71;95879.97;5055248;28;20320;-79
2021/10/16 03:28:52;;;;;;;29.00;19.93;;;;;;;7.39;95.65;95881.00;5055030;28;20242;-78
2021/10/16 03:31:17;;;;;;;28.47;19.30;;;;;;;7.38;95.92;95883.72;5038527;28;20178;-78
2021/10/16 03:33:42;;;;;;;28.17;19.73;;;;;;;7.44;95.25;95878.09;5038011;28;20175;-78
2021/10/16 03:36:07;;;;;;;28.33;20.20;;;;;;;7.41;95.60;95877.47;5038631;28;20189;-79
2021/10/16 03:38:33;;;;;;;28.00;20.60;;;;;;;7.39;95.60;95882.78;5055918;28;20200;-78
2021/10/16 03:40:59;;;;;;;27.97;20.43;;;;;;;7.38;95.83;95875.97;5038109;28;20189;-79
2021/10/16 03:43:24;;;;;;;28.00;20.57;;;;;;;7.37;95.96;95876.91;5055951;28;20204;-79
2021/10/16 03:45:49;;;;;;;29.60;20.77;;;;;;;7.35;96.00;95876.22;5037369;28;20543;-78
2021/10/16 03:48:15;;;;;;;28.07;20.20;;;;;;;7.42;95.60;95868.78;5038607;28;20280;-78
2021/10/16 03:50:40;;;;;;;27.73;19.60;;;;;;;7.38;95.72;95871.63;5056177;28;20181;-78
2021/10/16 03:53:05;;;;;;;26.40;19.27;;;;;;;7.36;95.81;95870.94;5038567;28;20296;-79
2021/10/16 03:55:30;;;;;;;24.70;18.83;;;;;;;7.36;95.90;95876.09;5037558;28;20259;-78
2021/10/16 03:57:56;;;;;;;31.57;19.57;;;;;;;7.36;96.11;95880.44;5038472;28;20202;-78
2021/10/16 04:00:21;;;;;;;30.57;19.43;;;;;;;7.35;96.11;95874.44;5056159;28;20185;-79
2021/10/16 04:02:50;;;;;;;30.13;20.37;;;;;;;7.36;96.16;95875.28;5055792;28;20213;-79
2021/10/16 04:05:15;;;;;;;30.40;20.17;;;;;;;7.37;96.09;95877.72;5037757;28;20196;-79
2021/10/16 04:07:41;;;;;;;27.07;19.53;;;;;;;7.38;95.98;95873.38;5037253;28;20186;-78
2021/10/16 04:10:07;;;;;;;27.43;19.13;;;;;;;7.39;95.81;95872.44;5054638;28;20232;-78
2021/10/16 04:12:32;;;;;;;25.67;18.50;;;;;;;7.39;95.94;95875.84;5054673;28;20646;-78
2021/10/16 04:14:58;;;;;;;24.97;17.90;;;;;;;7.39;95.84;95864.69;5021075;28;20182;-78
2021/10/16 04:17:23;;;;;;;25.17;17.37;;;;;;;7.39;95.80;95867.28;5055952;28;20177;-78
2021/10/16 04:19:48;;;;;;;21.27;15.70;;;;;;;7.35;95.43;95879.63;5055816;28;20202;-78
2021/10/16 04:22:14;;;;;;;20.87;14.70;;;;;;;7.35;95.56;95877.03;5037603;28;20272;-79
2021/10/16 04:24:39;;;;;;;21.63;13.57;;;;;;;7.31;95.59;95875.63;5019803;28;20197;-81
2021/10/16 04:27:04;;;;;;;18.57;14.03;;;;;;;7.31;95.55;95874.78;5038096;28;20190;-78
2021/10/16 04:29:30;;;;;;;22.33;15.27;;;;;;;7.29;95.40;95874.09;5055742;28;20197;-80
2021/10/16 04:31:55;;;;;;;19.60;14.10;;;;;;;7.31;95.35;95872.22;5037991;28;20189;-79
2021/10/16 04:34:20;;;;;;;28.07;17.10;;;;;;;7.32;95.40;95876.44;5020519;28;20186;-79
2021/10/16 04:36:45;;;;;;;33.10;19.93;;;;;;;7.30;96.09;95873.97;5055231;28;20177;-80
2021/10/16 04:39:11;;;;;;;38.53;21.33;;;;;;;7.37;95.79;95875.16;5037332;28;20296;-78
2021/10/16 04:41:37;;;;;;;37.77;20.00;;;;;;;7.34;95.54;95872.81;5055478;28;20292;-78
2021/10/16 04:44:04;;;;;;;35.43;20.23;;;;;;;7.33;95.66;95876.34;5053201;28;20185;-78
2021/10/16 04:46:29;;;;;;;36.23;20.83;;;;;;;7.33;95.81;95876.34;5073330;28;20184;-78
2021/10/16 04:48:55;;;;;;;40.17;21.70;;;;;;;7.38;95.68;95868.22;5077266;28;20249;-78
2021/10/16 04:51:20;;;;;;;41.53;22.53;;;;;;;7.32;95.71;95872.09;5096073;28;20173;-79
2021/10/16 04:53:45;;;;;;;41.80;22.07;;;;;;;7.31;96.08;95867.88;5076952;28;20191;-78
2021/10/16 04:56:10;;;;;;;46.43;21.63;;;;;;;7.31;95.84;95872.22;5095286;28;20188;-79
2021/10/16 04:58:36;;;;;;;55.20;24.53;;;;;;;7.28;96.33;95867.28;5051864;28;20645;-79
2021/10/16 05:01:01;;;;;;;48.77;23.47;;;;;;;7.28;96.54;95872.47;5061212;28;20212;-79
2021/10/16 05:03:26;;;;;;;50.43;24.07;;;;;;;7.28;96.51;95872.47;5056963;28;20177;-78
2021/10/16 05:05:55;;;;;;;52.87;25.53;;;;;;;7.29;96.60;95872.34;5039762;28;20192;-78
2021/10/16 05:08:21;;;;;;;57.17;26.57;;;;;;;7.29;96.73;95871.50;5056000;28;20703;-78
2021/10/16 05:10:46;;;;;;;60.20;27.23;;;;;;;7.29;96.66;95874.09;5057223;28;20201;-79
2021/10/16 05:13:11;;;;;;;54.03;25.17;;;;;;;7.29;96.56;95880.09;5056761;28;20549;-78
2021/10/16 05:15:37;;;;;;;55.30;27.17;;;;;;;7.28;96.72;95875.03;5074266;28;20181;-79
2021/10/16 05:18:03;;;;;;;48.80;26.17;;;;;;;7.27;96.63;95876.00;5040239;28;20193;-78
2021/10/16 05:20:28;;;;;;;52.40;27.40;;;;;;;7.25;96.76;95877.88;5057102;28;20177;-79
2021/10/16 05:22:53;;;;;;;49.10;26.40;;;;;;;7.23;97.10;95884.91;5057037;28;20213;-79
2021/10/16 05:25:19;;;;;;;40.60;22.00;;;;;;;7.14;97.98;95886.44;5056206;28;20242;-79
2021/10/16 05:27:44;;;;;;;47.10;23.57;;;;;;;7.14;97.74;95883.84;5056341;28;20633;-78
2021/10/16 05:30:10;;;;;;;38.53;21.10;;;;;;;7.09;97.99;95881.63;5056313;28;20200;-78
2021/10/16 05:32:36;;;;;;;39.43;21.67;;;;;;;7.14;97.96;95891.59;5056453;28;20185;-80
2021/10/16 05:35:02;;;;;;;34.63;19.00;;;;;;;7.14;97.48;95890.78;5055780;28;20319;-79
2021/10/16 05:37:27;;;;;;;30.03;17.83;;;;;;;7.14;97.10;95886.44;5056456;28;20181;-79
2021/10/16 05:39:53;;;;;;;27.90;16.77;;;;;;;7.09;97.29;95889.38;5056535;28;20553;-79
2021/10/16 05:42:18;;;;;;;23.57;13.40;;;;;;;7.10;96.87;95896.19;5039594;28;20204;-79
2021/10/16 05:44:43;;;;;;;21.23;14.70;;;;;;;7.12;96.79;95892.66;5055567;28;20185;-79
2021/10/16 05:47:09;;;;;;;23.40;16.20;;;;;;;7.14;96.55;95890.78;5061998;28;20188;-80
2021/10/16 05:49:34;;;;;;;23.80;16.90;;;;;;;7.22;95.99;95899.56;5069893;28;20244;-79
2021/10/16 05:51:59;;;;;;;24.23;17.63;;;;;;;7.22;95.87;95891.81;5069303;28;20275;-80
2021/10/16 05:54:25;;;;;;;31.00;18.97;;;;;;;7.25;95.96;95895.97;5070857;28;20186;-79
2021/10/16 05:56:50;;;;;;;32.13;19.57;;;;;;;7.25;96.13;95901.94;5071282;28;20231;-80
2021/10/16 05:59:15;;;;;;;30.53;19.87;;;;;;;7.29;95.66;95895.59;5054850;28;20204;-80
2021/10/16 06:01:41;;;;;;;35.80;21.47;;;;;;;7.24;95.88;95902.84;5054785;28;20197;-78
2021/10/16 06:04:06;;;;;;;41.63;24.13;;;;;;;7.25;96.10;95908.88;5070999;28;20185;-79
2021/10/16 06:06:31;;;;;;;44.90;25.87;;;;;;;7.23;96.10;95905.56;5054608;28;20177;-78
2021/10/16 06:08:57;;;;;;;44.73;24.80;;;;;;;7.23;95.97;95905.56;5054893;28;20207;-78
2021/10/16 06:11:22;;;;;;;44.07;25.63;;;;;;;7.25;95.85;95899.38;5038003;28;20189;-78
2021/10/16 06:13:47;;;;;;;43.97;24.73;;;;;;;7.27;95.98;95907.00;5054287;28;20185;-79
2021/10/16 06:16:13;;;;;;;40.93;23.43;;;;;;;7.32;95.81;95910.84;5038279;28;20185;-79
2021/10/16 06:18:40;;;;;;;36.43;22.13;;;;;;;7.33;95.58;95911.66;5055090;28;20266;-79
2021/10/16 06:21:07;;;;;;;44.43;24.80;;;;;;;7.36;95.68;95907.09;5054695;28;20199;-79
2021/10/16 06:23:32;;;;;;;37.07;22.07;;;;;;;7.38;95.50;95912.97;5037328;28;20184;-79
2021/10/16 06:25:58;;;;;;;36.83;22.73;;;;;;;7.38;95.16;95920.72;5053664;28;20173;-79
2021/10/16 06:28:23;;;;;;;31.53;20.00;;;;;;;7.42;94.88;95917.88;5072694;28;20184;-78
2021/10/16 06:30:48;;;;;;;30.40;19.37;;;;;;;7.50;94.31;95911.16;5038325;28;20188;-78
2021/10/16 06:33:14;;;;;;;31.87;20.37;;;;;;;7.53;93.99;95918.69;5054561;28;20604;-78
2021/10/16 06:35:41;;;;;;;28.40;19.07;;;;;;;7.56;93.33;95912.47;5054226;28;20518;-78
2021/10/16 06:38:07;;;;;;;26.00;18.67;;;;;;;7.54;93.44;95920.34;5054325;28;20284;-79
2021/10/16 06:40:32;;;;;;;29.57;19.03;;;;;;;7.55;93.64;95921.16;5038354;28;20217;-78
2021/10/16 06:42:57;;;;;;;25.63;16.67;;;;;;;7.58;93.50;95924.31;5053893;28;20209;-80
2021/10/16 06:45:23;;;;;;;29.90;19.17;;;;;;;7.54;93.51;95920.34;5053362;28;20219;-78
2021/10/16 06:47:48;;;;;;;28.73;19.57;;;;;;;7.62;93.66;95932.66;5045273;28;20204;-79
2021/10/16 06:50:13;;;;;;;31.53;18.73;;;;;;;7.67;92.81;95928.75;5080696;28;20180;-80
2021/10/16 06:52:38;;;;;;;29.87;17.93;;;;;;;7.69;92.75;95933.03;5067869;28;20181;-79
2021/10/16 06:55:05;;;;;;;25.23;17.87;;;;;;;7.77;92.22;95934.03;5061439;28;20211;-78
2021/10/16 06:57:31;;;;;;;30.13;18.90;;;;;;;7.76;91.76;95934.97;5061281;28;20177;-80
2021/10/16 06:59:56;;;;;;;28.13;17.70;;;;;;;7.90;91.74;95941.66;5061500;28;20284;-79
2021/10/16 07:02:21;;;;;;;29.10;18.67;;;;;;;7.88;91.02;95940.97;5061727;28;20562;-79
2021/10/16 07:04:47;;;;;;;26.67;17.73;;;;;;;7.97;90.98;95948.00;5078836;28;20177;-79
2021/10/16 07:07:12;;;;;;;27.77;17.67;;;;;;;7.95;90.26;95950.72;5079048;28;20173;-78
2021/10/16 07:09:37;;;;;;;29.27;18.80;;;;;;;7.99;89.66;95943.50;5066833;28;20246;-79
2021/10/16 07:12:03;;;;;;;28.70;18.87;;;;;;;8.08;89.75;95953.13;5070699;28;20184;-78
2021/10/16 07:14:28;;;;;;;31.10;19.87;;;;;;;8.02;89.45;95945.03;5064865;28;20256;-78
2021/10/16 07:16:53;;;;;;;31.83;19.93;;;;;;;7.97;90.36;95949.75;5061753;28;20177;-80
2021/10/16 07:19:19;;;;;;;35.57;21.90;;;;;;;8.11;90.18;95950.28;5061147;28;20705;-79
2021/10/16 07:21:44;;;;;;;34.13;21.10;;;;;;;8.13;90.42;95958.75;5061193;28;20216;-79
2021/10/16 07:24:10;;;;;;;32.13;20.57;;;;;;;8.15;90.10;95959.47;5060521;28;20279;-80
2021/10/16 07:26:36;;;;;;;28.17;18.17;;;;;;;8.11;90.77;95950.28;5069254;28;20188;-78
2021/10/16 07:29:02;;;;;;;29.63;17.70;;;;;;;8.21;90.57;95961.53;5078583;28;20548;-80
2021/10/16 07:31:29;;;;;;;25.03;16.67;;;;;;;8.31;90.18;95951.28;5079049;28;20283;-78
2021/10/16 07:33:56;;;;;;;26.53;17.67;;;;;;;8.32;90.04;95957.28;5063842;28;20181;-79
2021/10/16 07:36:21;;;;;;;28.27;18.20;;;;;;;8.35;89.96;95967.41;5081318;28;20181;-80
2021/10/16 07:38:47;;;;;;;25.40;17.23;;;;;;;8.34;89.72;95966.56;5080934;28;20207;-80
2021/10/16 07:41:12;;;;;;;24.43;16.47;;;;;;;8.38;89.94;95957.63;5081125;28;20202;-79
2021/10/16 07:43:37;;;;;;;27.90;16.60;;;;;;;8.28;90.07;95974.81;5080828;28;20735;-79
2021/10/16 07:46:02;;;;;;;25.83;16.57;;;;;;;8.42;88.90;95974.56;5063100;28;20688;-79
2021/10/16 07:48:28;;;;;;;25.00;16.87;;;;;;;8.44;88.80;95977.03;5044372;28;20223;-79
2021/10/16 07:50:54;;;;;;;27.13;17.33;;;;;;;8.40;88.67;95971.28;5061207;28;20216;-79
2021/10/16 07:53:19;;;;;;;26.90;16.83;;;;;;;8.32;88.89;95983.16;5061547;28;20178;-79
2021/10/16 07:55:44;;;;;;;27.13;16.63;;;;;;;8.23;89.34;95995.88;5070119;28;20181;-80
2021/10/16 07:58:10;;;;;;;30.30;17.70;;;;;;;8.08;90.20;95984.16;5064153;28;20271;-78
2021/10/16 08:00:35;;;;;;;31.87;17.83;;;;;;;8.11;90.23;95991.66;5050181;28;20193;-79
2021/10/16 08:03:01;;;;;;;30.67;18.90;;;;;;;8.09;90.26;95990.97;5052061;28;20201;-79
2021/10/16 08:05:26;;;;;;;34.63;19.43;;;;;;;7.96;90.47;95995.50;5053609;28;20265;-80
2021/10/16 08:07:52;;;;;;;37.33;21.03;;;;;;;7.97;90.97;95998.91;5053370;28;20177;-80
2021/10/16 08:10:18;;;;;;;36.67;20.87;;;;;;;7.95;91.11;96006.75;5053064;28;20259;-81
2021/10/16 08:12:43;;;;;;;38.77;20.33;;;;;;;8.01;91.00;96000.28;5053382;28;20634;-79
2021/10/16 08:15:09;;;;;;;35.30;20.70;;;;;;;8.07;90.70;96003.22;5052761;28;20197;-79
2021/10/16 08:17:38;;;;;;;36.97;22.10;;;;;;;8.06;90.93;96005.94;5052437;28;20177;-79
2021/10/16 08:20:04;;;;;;;38.20;21.67;;;;;;;7.99;91.08;96002.19;5053650;28;20477;-79
2021/10/16 08:22:29;;;;;;;38.57;21.20;;;;;;;7.93;91.42;95998.28;5053087;28;20288;-80
2021/10/16 08:24:55;;;;;;;40.63;21.90;;;;;;;7.97;91.32;96004.06;5052114;28;20292;-81
2021/10/16 08:27:21;;;;;;;33.70;21.40;;;;;;;7.89;92.23;96002.91;5052888;28;20162;-79
2021/10/16 08:29:46;;;;;;;43.77;22.70;;;;;;;8.07;91.49;96005.81;5053928;28;20207;-79
2021/10/16 08:32:11;;;;;;;39.83;22.53;;;;;;;8.07;91.56;96010.97;5054335;28;20178;-80
2021/10/16 08:34:36;;;;;;;45.93;24.57;;;;;;;8.05;91.80;96007.69;5055440;28;20186;-79
2021/10/16 08:37:02;;;;;;;42.40;22.20;;;;;;;8.27;91.25;96016.34;5053063;28;20182;-79
2021/10/16 08:39:27;;;;;;;43.50;23.33;;;;;;;8.26;91.15;96009.50;5054287;28;20202;-79
2021/10/16 08:41:52;;;;;;;43.60;21.50;;;;;;;8.36;91.25;96016.44;5054345;28;20206;-78
2021/10/16 08:44:18;;;;;;;37.07;20.20;;;;;;;8.34;91.02;96007.16;5037832;28;20181;-78
2021/10/16 08:46:44;;;;;;;37.90;19.97;;;;;;;8.39;91.37;96018.81;5057370;28;20252;-78
2021/10/16 08:49:14;;;;;;;42.07;21.23;;;;;;;8.42;90.44;96020.31;5056345;28;20204;-79
2021/10/16 08:51:40;;;;;;;46.43;22.83;;;;;;;8.44;90.54;96015.84;5057113;28;20518;-78
2021/10/16 08:54:06;;;;;;;43.23;23.17;;;;;;;8.36;90.97;96018.22;5056228;28;20177;-78
2021/10/16 08:56:31;;;;;;;52.60;24.47;;;;;;;8.34;91.30;96020.09;5074236;28;20894;-78
2021/10/16 08:58:57;;;;;;;71.97;29.27;;;;;;;8.24;91.59;96023.41;5056311;28;20589;-78
2021/10/16 09:01:22;;;;;;;71.00;30.67;;;;;;;8.30;91.72;96022.06;5075464;28;20204;-78
2021/10/16 09:03:50;;;;;;;74.27;29.93;;;;;;;8.17;92.78;96022.25;5041973;28;20682;-78
2021/10/16 09:06:27;;;;;;;78.37;27.90;;;;;;;8.38;91.34;96018.91;5042616;28;20176;-81
2021/10/16 09:08:59;;;;;;;66.53;27.10;;;;;;;8.32;91.88;96019.38;5057174;28;20200;-80
2021/10/16 09:11:25;;;;;;;75.97;28.80;;;;;;;8.42;91.38;96020.31;5056020;28;20633;-78
2021/10/16 09:14:10;;;;;;;61.57;28.07;;;;;;;8.48;91.42;96019.81;5073653;28;20538;-80
2021/10/16 09:16:41;;;;;;;60.10;28.37;;;;;;;8.38;91.34;96022.31;5039394;28;20671;-79
2021/10/16 09:19:25;;;;;;;66.37;29.60;;;;;;;8.50;91.49;96023.13;5039151;28;20204;-78
2021/10/16 09:21:58;;;;;;;57.13;27.60;;;;;;;8.64;91.25;96009.88;5056180;28;20196;-79
2021/10/16 09:24:24;;;;;;;63.70;30.20;;;;;;;8.55;90.91;96022.75;5039409;28;20232;-79
2021/10/16 09:26:54;;;;;;;64.93;28.30;;;;;;;8.40;90.88;96022.22;5074395;28;20181;-79
2021/10/16 09:29:22;;;;;;;69.00;29.50;;;;;;;8.15;92.34;96024.13;5039313;28;20246;-79
2021/10/16 09:31:55;;;;;;;64.20;31.00;;;;;;;8.24;92.85;96018.22;5039256;28;20173;-79
2021/10/16 09:34:34;;;;;;;59.47;29.03;;;;;;;8.46;91.58;96019.94;5073152;28;20257;-80
2021/10/16 09:37:07;;;;;;;81.97;29.87;;;;;;;8.43;91.64;96019.38;5039001;28;20181;-80
2021/10/16 09:39:34;;;;;;;73.83;29.40;;;;;;;8.55;90.91;96015.78;5055108;28;20224;-80
2021/10/16 09:41:59;;;;;;;60.63;28.07;;;;;;;8.70;90.40;96014.56;5067539;28;20203;-79
2021/10/16 09:44:29;;;;;;;87.20;30.50;;;;;;;8.60;91.03;96018.03;5069669;28;20184;-79
2021/10/16 09:47:00;;;;;;;74.67;31.53;;;;;;;8.63;90.34;96013.41;5069978;28;20611;-79
2021/10/16 09:49:31;;;;;;;79.73;29.47;;;;;;;8.64;90.18;96012.47;5058633;28;20192;-79
2021/10/16 09:51:56;;;;;;;64.77;28.47;;;;;;;8.87;90.46;96012.38;5075521;28;20173;-79
2021/10/16 09:54:21;;;;;;;79.33;30.70;;;;;;;9.00;89.56;96010.41;5068998;28;20656;-79
2021/10/16 09:56:47;;;;;;;64.83;28.63;;;;;;;9.02;89.74;96017.13;5076720;28;20191;-80
2021/10/16 09:59:15;;;;;;;62.03;27.90;;;;;;;9.10;88.78;96011.31;5045300;28;20209;-79
2021/10/16 10:01:41;;;;;;;60.83;26.47;;;;;;;9.07;88.30;96012.34;5038270;28;20197;-79
2021/10/16 10:04:08;;;;;;;54.43;25.87;;;;;;;9.09;88.75;96017.41;5054360;28;20558;-79
2021/10/16 10:06:34;;;;;;;76.67;28.37;;;;;;;9.11;88.11;96015.53;5038290;28;20288;-79
2021/10/16 10:09:00;;;;;;;63.77;28.43;;;;;;;9.12;87.77;96011.19;5055313;28;20320;-80
2021/10/16 10:11:25;;;;;;;69.20;27.27;;;;;;;9.08;88.20;96005.41;5052119;28;20176;-79
2021/10/16 10:13:52;;;;;;;59.47;28.07;;;;;;;9.15;87.41;96010.91;5074440;28;20544;-83
2021/10/16 10:16:17;;;;;;;59.33;27.80;;;;;;;8.98;88.40;96015.72;5058442;28;20195;-80
2021/10/16 10:19:00;;;;;;;56.40;27.17;;;;;;;9.16;87.97;96012.56;5074746;28;20204;-80
2021/10/16 10:21:35;;;;;;;55.80;27.13;;;;;;;8.99;88.15;96019.13;5060795;28;20253;-79
2021/10/16 10:24:02;;;;;;;59.17;25.53;;;;;;;8.98;87.95;96009.72;5057483;28;20207;-79
2021/10/16 10:26:32;;;;;;;55.33;26.47;;;;;;;9.06;87.88;96012.50;5057321;28;20523;-79
2021/10/16 10:28:59;;;;;;;56.77;24.20;;;;;;;9.24;87.79;96012.72;5074933;28;20195;-80
2021/10/16 10:31:44;;;;;;;51.67;24.53;;;;;;;9.41;86.88;96008.72;5093262;28;20176;-80
2021/10/16 10:34:12;;;;;;;50.30;23.97;;;;;;;9.67;86.06;96009.13;5078085;28;20246;-79
2021/10/16 10:36:53;;;;;;;47.10;23.47;;;;;;;9.52;85.36;96009.47;5058491;28;20177;-79
2021/10/16 10:39:30;;;;;;;50.57;23.33;;;;;;;9.47;85.14;96011.63;5094148;28;20188;-80
2021/10/16 10:41:56;;;;;;;51.97;23.77;;;;;;;9.75;84.99;96006.69;5076290;28;20192;-79
2021/10/16 10:44:53;;;;;;;49.90;23.60;;;;;;;9.92;84.17;96013.84;5057752;28;20193;-79
2021/10/16 10:47:33;;;;;;;45.97;20.03;;;;;;;10.02;83.47;96013.88;5058466;28;20176;-80
2021/10/16 10:50:04;;;;;;;44.70;21.23;;;;;;;9.78;82.64;96002.06;5058490;28;20203;-80
2021/10/16 10:53:02;;;;;;;48.63;24.20;;;;;;;9.80;83.86;95999.31;5058088;28;20169;-81
2021/10/16 10:55:27;;;;;;;45.17;23.50;;;;;;;9.99;83.18;96003.78;5074977;28;20204;-81
2021/10/16 10:57:58;;;;;;;37.10;19.83;;;;;;;10.14;81.28;95999.81;5074940;28;20172;-81
2021/10/16 11:00:30;;;;;;;45.47;21.13;;;;;;;10.09;81.50;95996.84;5076159;28;20202;-81
2021/10/16 11:02:55;;;;;;;38.00;20.97;;;;;;;9.98;82.01;95999.50;5074849;28;20212;-80
2021/10/16 11:05:31;;;;;;;39.47;19.93;;;;;;;9.94;82.11;95996.38;5074349;28;20183;-81
2021/10/16 11:08:23;;;;;;;35.67;20.47;;;;;;;10.28;81.82;95990.88;5075338;28;20679;-81
2021/10/16 11:10:48;;;;;;;43.70;21.77;;;;;;;10.30;80.98;95994.97;5055032;28;20628;-80
2021/10/16 11:13:14;;;;;;;43.90;21.70;;;;;;;10.37;80.61;95988.28;5075108;28;20252;-81
2021/10/16 11:15:40;;;;;;;43.70;23.67;;;;;;;10.37;80.05;95992.66;5057900;28;20514;-81
2021/10/16 11:18:13;;;;;;;46.53;23.63;;;;;;;10.05;81.24;95991.06;5091494;28;20199;-80
2021/10/16 11:20:39;;;;;;;50.43;23.70;;;;;;;10.05;81.79;95985.06;5074166;28;20310;-81
2021/10/16 11:23:06;;;;;;;45.93;22.90;;;;;;;10.15;81.31;95988.50;5074227;28;20242;-81